createdAt,value
2022-10-21T00:00:30.277Z,15.26
2022-10-21T00:03:33.483Z,15.27
2022-10-21T00:06:36.661Z,14.78
2022-10-21T00:09:40.016Z,15.13
2022-10-21T00:12:43.181Z,15.18
2022-10-21T00:15:58.086Z,15.47
2022-10-21T00:19:01.292Z,15.60
2022-10-21T00:22:04.400Z,15.23
2022-10-21T00:25:08.268Z,15.29
2022-10-21T00:28:11.327Z,15.15
2022-10-21T00:31:17.360Z,15.06
2022-10-21T00:34:20.409Z,15.12
2022-10-21T00:37:23.486Z,15.33
2022-10-21T00:40:26.630Z,15.38
2022-10-21T00:43:30.396Z,15.48
2022-10-21T00:46:41.397Z,15.26
2022-10-21T00:49:50.948Z,15.30
2022-10-21T00:52:56.108Z,15.00
2022-10-21T00:56:03.025Z,15.14
2022-10-21T00:59:07.688Z,15.17
2022-10-21T01:02:12.315Z,15.14
2022-10-21T01:05:17.332Z,15.26
2022-10-21T01:08:21.482Z,15.15
2022-10-21T01:11:27.154Z,15.21
2022-10-21T01:14:43.615Z,15.34
2022-10-21T01:17:54.686Z,15.27
2022-10-21T01:21:16.913Z,15.03
2022-10-21T01:24:53.191Z,15.08
2022-10-21T01:28:08.045Z,14.96
2022-10-21T01:31:19.373Z,15.08
2022-10-21T01:34:28.330Z,14.98
2022-10-21T01:37:42.880Z,15.10
2022-10-21T01:40:56.021Z,15.10
2022-10-21T01:44:08.330Z,14.98
2022-10-21T01:47:19.102Z,15.13
2022-10-21T01:50:26.496Z,15.28
2022-10-21T01:53:32.736Z,14.85
2022-10-21T01:56:37.781Z,14.88
2022-10-21T01:59:43.944Z,15.00
2022-10-21T02:02:50.948Z,15.07
2022-10-21T02:05:54.441Z,14.85
2022-10-21T02:08:57.816Z,15.03
2022-10-21T02:12:03.268Z,14.80
2022-10-21T02:15:10.569Z,14.97
2022-10-21T02:18:22.572Z,14.69
2022-10-21T02:21:29.495Z,14.92
2022-10-21T02:24:40.124Z,15.01
2022-10-21T02:27:43.549Z,15.16
2022-10-21T02:30:52.815Z,14.98
2022-10-21T02:34:06.086Z,15.00
2022-10-21T02:37:22.887Z,15.00
2022-10-21T02:40:33.238Z,14.91
2022-10-21T02:43:39.955Z,14.70
2022-10-21T02:46:44.934Z,14.56
2022-10-21T02:49:49.608Z,14.53
2022-10-21T02:52:52.885Z,14.56
2022-10-21T02:55:56.130Z,14.27
2022-10-21T02:58:59.363Z,14.39
2022-10-21T03:02:02.634Z,14.84
2022-10-21T03:05:09.232Z,14.66
2022-10-21T03:08:12.402Z,14.75
2022-10-21T03:11:15.583Z,14.87
2022-10-21T03:14:18.818Z,14.82
2022-10-21T03:17:25.125Z,14.87
2022-10-21T03:20:30.155Z,14.85
2022-10-21T03:23:33.298Z,14.86
2022-10-21T03:26:36.538Z,14.92
2022-10-21T03:29:39.771Z,14.96
2022-10-21T03:32:42.976Z,14.69
2022-10-21T03:35:47.526Z,14.92
2022-10-21T03:38:50.737Z,14.89
2022-10-21T03:41:54.032Z,14.84
2022-10-21T03:44:57.175Z,14.71
2022-10-21T03:48:00.415Z,14.82
2022-10-21T03:51:05.221Z,14.80
2022-10-21T03:54:08.417Z,14.41
2022-10-21T03:57:11.742Z,14.71
2022-10-21T04:00:15.550Z,14.70
2022-10-21T04:03:18.776Z,14.71
2022-10-21T04:06:23.446Z,14.62
2022-10-21T04:09:26.901Z,14.67
2022-10-21T04:12:30.184Z,14.69
2022-10-21T04:15:33.321Z,14.64
2022-10-21T04:18:36.517Z,14.46
2022-10-21T04:21:41.051Z,14.48
2022-10-21T04:24:44.271Z,14.46
2022-10-21T04:27:47.461Z,14.48
2022-10-21T04:30:50.936Z,14.61
2022-10-21T04:33:54.185Z,14.41
2022-10-21T04:37:01.140Z,14.11
2022-10-21T04:40:09.140Z,14.63
2022-10-21T04:43:12.384Z,14.48
2022-10-21T04:46:17.128Z,14.72
2022-10-21T04:49:20.561Z,14.75
2022-10-21T04:52:25.203Z,14.57
2022-10-21T04:55:28.379Z,14.57
2022-10-21T04:58:31.568Z,14.84
2022-10-21T05:01:34.906Z,14.92
2022-10-21T05:04:38.162Z,14.92
2022-10-21T05:07:42.725Z,14.72
2022-10-21T05:10:45.967Z,14.69
2022-10-21T05:13:49.114Z,14.80
2022-10-21T05:16:52.317Z,14.77
2022-10-21T05:19:55.529Z,14.50
2022-10-21T05:23:00.145Z,14.39
2022-10-21T05:26:03.345Z,14.44
2022-10-21T05:29:06.577Z,14.86
2022-10-21T05:32:09.782Z,14.81
2022-10-21T05:35:13.255Z,14.34
2022-10-21T05:38:17.779Z,14.90
2022-10-21T05:41:21.085Z,15.06
2022-10-21T05:44:24.411Z,15.26
2022-10-21T05:47:27.615Z,15.38
2022-10-21T05:50:30.787Z,15.42
2022-10-21T05:53:35.608Z,15.22
2022-10-21T05:56:38.849Z,15.18
2022-10-21T05:59:42.106Z,15.12
2022-10-21T06:02:45.488Z,15.32
2022-10-21T06:05:48.706Z,15.62
2022-10-21T06:08:53.320Z,15.40
2022-10-21T06:11:57.892Z,15.33
2022-10-21T06:15:01.098Z,15.43
2022-10-21T06:18:04.390Z,15.81
2022-10-21T06:21:08.268Z,15.71
2022-10-21T06:24:12.935Z,15.51
2022-10-21T06:27:16.138Z,15.55
2022-10-21T06:30:19.389Z,15.52
2022-10-21T06:33:26.231Z,15.22
2022-10-21T06:36:30.590Z,15.19
2022-10-21T06:39:35.303Z,15.12
2022-10-21T06:42:40.387Z,15.47
2022-10-21T06:45:43.757Z,15.30
2022-10-21T06:48:46.975Z,15.59
2022-10-21T06:51:50.155Z,15.82
2022-10-21T06:54:54.730Z,16.25
2022-10-21T06:57:57.983Z,16.04
2022-10-21T07:01:01.145Z,16.55
2022-10-21T07:04:06.144Z,16.74
2022-10-21T07:07:09.363Z,16.85
2022-10-21T07:10:13.925Z,17.06
2022-10-21T07:13:17.146Z,16.78
2022-10-21T07:16:23.870Z,16.83
2022-10-21T07:19:27.449Z,16.60
2022-10-21T07:22:31.954Z,16.72
2022-10-21T07:25:37.700Z,17.10
2022-10-21T07:28:42.083Z,17.00
2022-10-21T07:31:45.771Z,17.61
2022-10-21T07:34:49.033Z,17.52
2022-10-21T07:37:52.342Z,17.89
2022-10-21T07:40:58.194Z,18.24
2022-10-21T07:44:01.837Z,18.44
2022-10-21T07:47:05.107Z,18.66
2022-10-21T07:50:09.251Z,18.69
2022-10-21T07:53:13.250Z,18.92
2022-10-21T07:56:20.906Z,19.18
2022-10-21T07:59:24.516Z,19.35
2022-10-21T08:02:31.426Z,19.67
2022-10-21T08:05:34.645Z,19.76
2022-10-21T08:08:38.993Z,19.55
2022-10-21T08:11:44.043Z,19.63
2022-10-21T08:14:47.261Z,19.85
2022-10-21T08:17:50.492Z,20.12
2022-10-21T08:20:53.987Z,20.38
2022-10-21T08:23:57.179Z,20.56
2022-10-21T08:27:01.808Z,20.69
2022-10-21T08:30:05.629Z,20.64
2022-10-21T08:33:08.816Z,19.67
2022-10-21T08:36:15.482Z,20.45
2022-10-21T08:39:18.705Z,20.67
2022-10-21T08:42:23.788Z,20.83
2022-10-21T08:45:34.755Z,21.07
2022-10-21T08:48:43.917Z,21.72
2022-10-21T08:51:55.227Z,21.70
2022-10-21T08:55:01.210Z,21.66
2022-10-21T08:58:06.108Z,20.39
2022-10-21T09:01:24.424Z,20.80
2022-10-21T09:04:42.843Z,21.39
2022-10-21T09:07:52.520Z,21.88
2022-10-21T09:11:02.615Z,21.84
2022-10-21T09:14:50.141Z,21.44
2022-10-21T09:18:12.395Z,20.83
2022-10-21T09:21:24.142Z,20.95
2022-10-21T09:24:35.126Z,21.71
2022-10-21T09:27:54.994Z,22.08
2022-10-21T09:31:03.761Z,22.19
2022-10-21T09:34:19.464Z,21.84
2022-10-21T09:37:31.750Z,22.39
2022-10-21T09:40:37.986Z,22.68
2022-10-21T09:43:41.219Z,23.00
2022-10-21T09:46:46.355Z,22.97
2022-10-21T09:50:06.813Z,22.36
2022-10-21T09:53:16.406Z,21.95
2022-10-21T09:56:22.447Z,21.85
2022-10-21T09:59:30.428Z,21.58
2022-10-21T10:02:39.217Z,21.46
2022-10-21T10:05:48.134Z,22.27
2022-10-21T10:08:51.637Z,22.48
2022-10-21T10:11:57.924Z,22.83
2022-10-21T10:15:30.827Z,22.71
2022-10-21T10:18:38.357Z,22.46
2022-10-21T10:21:43.442Z,22.43
2022-10-21T10:24:47.086Z,23.07
2022-10-21T10:27:53.445Z,22.20
2022-10-21T10:30:58.702Z,22.86
2022-10-21T10:34:05.403Z,22.91
2022-10-21T10:37:21.338Z,22.43
2022-10-21T10:40:32.839Z,22.76
2022-10-21T10:43:45.320Z,22.47
2022-10-21T10:46:57.929Z,22.68
2022-10-21T10:50:01.604Z,22.70
2022-10-21T10:53:35.026Z,23.15
2022-10-21T10:56:48.069Z,22.79
2022-10-21T10:59:59.471Z,23.10
2022-10-21T11:03:06.476Z,22.02
2022-10-21T11:06:16.930Z,22.68
2022-10-21T11:09:25.108Z,22.58
2022-10-21T11:12:30.336Z,22.17
2022-10-21T11:16:12.561Z,22.65
2022-10-21T11:19:28.258Z,22.56
2022-10-21T11:22:46.829Z,22.95
2022-10-21T11:26:08.040Z,22.80
2022-10-21T11:29:26.807Z,23.07
2022-10-21T11:32:42.488Z,22.95
2022-10-21T11:36:02.284Z,23.28
2022-10-21T11:39:59.429Z,22.99
2022-10-21T11:43:29.582Z,22.80
2022-10-21T11:46:50.059Z,22.94
2022-10-21T11:50:02.745Z,23.46
2022-10-21T11:53:35.436Z,22.28
2022-10-21T11:56:54.908Z,22.53
2022-10-21T12:00:37.797Z,22.16
2022-10-21T12:04:10.869Z,22.38
2022-10-21T12:08:04.416Z,22.43
2022-10-21T12:11:39.263Z,22.33
2022-10-21T12:14:56.673Z,22.91
2022-10-21T12:18:09.231Z,22.87
2022-10-21T12:21:40.093Z,22.56
2022-10-21T12:24:52.491Z,23.00
2022-10-21T12:28:05.799Z,22.79
2022-10-21T12:31:24.480Z,22.62
2022-10-21T12:34:34.113Z,22.63
2022-10-21T12:38:12.282Z,22.63
2022-10-21T12:41:36.536Z,22.85
2022-10-21T12:44:42.301Z,22.80
2022-10-21T12:47:47.232Z,22.96
2022-10-21T12:51:00.150Z,23.15
2022-10-21T12:54:15.610Z,22.71
2022-10-21T12:57:38.220Z,23.22
2022-10-21T13:00:58.793Z,23.24
2022-10-21T13:04:02.826Z,22.92
2022-10-21T13:07:37.638Z,23.12
2022-10-21T13:10:41.571Z,22.96
2022-10-21T13:13:50.353Z,22.78
2022-10-21T13:16:57.351Z,22.21
2022-10-21T13:20:49.328Z,22.62
2022-10-21T13:24:18.401Z,22.43
2022-10-21T13:27:29.081Z,22.46
2022-10-21T13:30:42.277Z,22.46
2022-10-21T13:33:57.614Z,22.28
2022-10-21T13:37:23.486Z,22.47
2022-10-21T13:40:38.926Z,22.53
2022-10-21T13:43:58.325Z,22.34
2022-10-21T13:47:34.842Z,22.15
2022-10-21T13:50:51.011Z,21.97
2022-10-21T13:54:04.352Z,22.19
2022-10-21T13:57:18.258Z,22.07
2022-10-21T14:00:32.425Z,21.63
2022-10-21T14:03:36.606Z,21.43
2022-10-21T14:06:59.126Z,21.66
2022-10-21T14:10:08.546Z,21.81
2022-10-21T14:13:30.326Z,21.82
2022-10-21T14:16:44.674Z,21.69
2022-10-21T14:19:54.786Z,21.67
2022-10-21T14:22:58.741Z,21.66
2022-10-21T14:26:09.247Z,21.69
2022-10-21T14:29:27.348Z,21.46
2022-10-21T14:32:33.157Z,21.64
2022-10-21T14:35:41.903Z,21.63
2022-10-21T14:38:54.026Z,21.50
2022-10-21T14:42:02.828Z,21.47
2022-10-21T14:45:09.330Z,21.34
2022-10-21T14:48:26.590Z,21.19
2022-10-21T14:51:36.642Z,21.17
2022-10-21T14:54:52.073Z,20.91
2022-10-21T14:58:08.087Z,20.86
2022-10-21T15:01:19.379Z,20.60
2022-10-21T15:04:52.408Z,20.34
2022-10-21T15:08:32.745Z,20.20
2022-10-21T15:11:41.976Z,20.13
2022-10-21T15:14:45.573Z,20.11
2022-10-21T15:17:50.505Z,20.18
2022-10-21T15:20:57.349Z,20.07
2022-10-21T15:24:04.653Z,20.12
2022-10-21T15:27:08.533Z,19.79
2022-10-21T15:30:18.906Z,19.55
2022-10-21T15:33:26.422Z,19.74
2022-10-21T15:36:29.817Z,19.71
2022-10-21T15:39:33.154Z,19.61
2022-10-21T15:42:37.097Z,19.57
2022-10-21T15:45:42.181Z,19.60
2022-10-21T15:48:46.794Z,19.58
2022-10-21T15:51:51.026Z,19.51
2022-10-21T15:54:55.373Z,19.38
2022-10-21T15:57:58.651Z,19.42
2022-10-21T16:01:01.926Z,19.32
2022-10-21T16:04:06.832Z,19.27
2022-10-21T16:07:20.907Z,19.25
2022-10-21T16:10:26.515Z,19.36
2022-10-21T16:13:29.697Z,19.34
2022-10-21T16:16:32.991Z,19.29
2022-10-21T16:19:37.720Z,19.25
2022-10-21T16:22:41.312Z,19.28
2022-10-21T16:25:48.294Z,19.11
2022-10-21T16:28:52.774Z,19.07
2022-10-21T16:31:56.107Z,19.02
2022-10-21T16:35:00.702Z,19.01
2022-10-21T16:38:04.025Z,19.03
2022-10-21T16:41:11.747Z,18.71
2022-10-21T16:44:15.416Z,18.79
2022-10-21T16:47:20.945Z,18.69
2022-10-21T16:50:31.372Z,18.51
2022-10-21T16:53:34.665Z,18.54
2022-10-21T16:56:37.912Z,18.37
2022-10-21T16:59:41.168Z,18.31
2022-10-21T17:02:47.005Z,18.32
2022-10-21T17:05:52.559Z,18.32
2022-10-21T17:08:58.097Z,18.32
2022-10-21T17:12:01.520Z,18.33
2022-10-21T17:15:05.972Z,18.27
2022-10-21T17:18:11.821Z,18.22
2022-10-21T17:21:22.562Z,18.12
2022-10-21T17:24:25.990Z,17.92
2022-10-21T17:27:29.241Z,17.87
2022-10-21T17:30:32.644Z,17.82
2022-10-21T17:33:35.885Z,17.86
2022-10-21T17:36:40.617Z,17.89
2022-10-21T17:39:44.575Z,17.50
2022-10-21T17:42:48.192Z,17.55
2022-10-21T17:45:51.702Z,17.73
2022-10-21T17:48:56.093Z,17.68
2022-10-21T17:52:00.699Z,17.51
2022-10-21T17:55:04.982Z,17.75
2022-10-21T17:58:08.096Z,17.39
2022-10-21T18:01:13.378Z,17.41
2022-10-21T18:04:16.643Z,17.25
2022-10-21T18:07:21.217Z,17.41
2022-10-21T18:10:24.490Z,17.22
2022-10-21T18:13:30.648Z,17.39
2022-10-21T18:16:34.973Z,17.44
2022-10-21T18:19:38.204Z,17.42
2022-10-21T18:22:43.129Z,17.44
2022-10-21T18:25:46.404Z,17.44
2022-10-21T18:28:50.620Z,17.37
2022-10-21T18:31:53.842Z,17.07
2022-10-21T18:35:00.152Z,17.10
2022-10-21T18:38:06.490Z,16.78
2022-10-21T18:41:19.913Z,16.91
2022-10-21T18:44:23.962Z,16.87
2022-10-21T18:47:28.178Z,16.71
2022-10-21T18:50:31.482Z,16.79
2022-10-21T18:53:42.460Z,16.83
2022-10-21T18:56:45.704Z,16.72
2022-10-21T18:59:48.890Z,16.82
2022-10-21T19:02:52.118Z,16.62
2022-10-21T19:05:55.381Z,16.66
2022-10-21T19:09:01.309Z,16.44
2022-10-21T19:12:04.962Z,16.40
2022-10-21T19:15:09.044Z,16.32
2022-10-21T19:18:13.646Z,16.27
2022-10-21T19:21:18.987Z,16.51
2022-10-21T19:24:23.570Z,16.55
2022-10-21T19:27:26.792Z,15.94
2022-10-21T19:30:32.277Z,16.31
2022-10-21T19:33:35.521Z,16.48
2022-10-21T19:36:38.714Z,16.15
2022-10-21T19:39:43.262Z,16.05
2022-10-21T19:42:46.447Z,16.10
2022-10-21T19:45:50.365Z,15.88
2022-10-21T19:48:53.644Z,15.80
2022-10-21T19:51:56.863Z,15.79
2022-10-21T19:55:01.531Z,15.79
2022-10-21T19:58:04.710Z,15.87
2022-10-21T20:01:10.326Z,15.91
2022-10-21T20:04:13.542Z,15.80
2022-10-21T20:07:16.765Z,15.42
2022-10-21T20:10:21.838Z,15.52
2022-10-21T20:13:25.113Z,15.57
2022-10-21T20:16:30.203Z,15.69
2022-10-21T20:19:33.403Z,15.65
2022-10-21T20:22:36.656Z,15.69
2022-10-21T20:25:47.807Z,15.74
2022-10-21T20:28:51.938Z,15.61
2022-10-21T20:31:55.187Z,15.30
2022-10-21T20:34:58.497Z,15.48
2022-10-21T20:38:01.654Z,15.47
2022-10-21T20:41:09.654Z,15.60
2022-10-21T20:44:16.218Z,15.54
2022-10-21T20:47:19.442Z,15.36
2022-10-21T20:50:22.851Z,15.49
2022-10-21T20:53:31.022Z,15.52
2022-10-21T20:56:38.239Z,15.14
2022-10-21T20:59:41.468Z,15.33
2022-10-21T21:02:44.687Z,15.34
2022-10-21T21:05:47.871Z,15.36
2022-10-21T21:09:08.615Z,15.26
2022-10-21T21:12:15.740Z,15.29
2022-10-21T21:15:18.919Z,15.22
2022-10-21T21:18:22.129Z,15.34
2022-10-21T21:21:27.829Z,15.17
2022-10-21T21:24:30.995Z,15.17
2022-10-21T21:27:35.660Z,15.13
2022-10-21T21:30:38.868Z,14.97
2022-10-21T21:33:45.218Z,15.06
2022-10-21T21:36:48.545Z,14.93
2022-10-21T21:39:51.858Z,15.00
2022-10-21T21:42:56.435Z,15.03
2022-10-21T21:45:59.655Z,14.86
2022-10-21T21:49:06.123Z,14.85
2022-10-21T21:52:09.634Z,14.83
2022-10-21T21:55:12.913Z,14.64
2022-10-21T21:58:17.535Z,14.34
2022-10-21T22:01:22.508Z,14.46
2022-10-21T22:04:25.738Z,14.59
2022-10-21T22:07:28.919Z,14.55
2022-10-21T22:10:32.235Z,14.48
2022-10-21T22:13:37.399Z,14.37
2022-10-21T22:16:40.682Z,14.66
2022-10-21T22:19:43.839Z,14.27
2022-10-21T22:22:47.142Z,14.35
2022-10-21T22:25:50.668Z,14.35
2022-10-21T22:28:55.297Z,14.22
2022-10-21T22:31:58.555Z,14.12
2022-10-21T22:35:01.683Z,14.07
2022-10-21T22:38:04.866Z,13.58
2022-10-21T22:41:12.202Z,13.24
2022-10-21T22:44:17.138Z,13.96
2022-10-21T22:47:23.430Z,14.04
2022-10-21T22:50:26.666Z,14.27
2022-10-21T22:53:29.863Z,14.27
2022-10-21T22:56:33.250Z,14.09
2022-10-21T22:59:38.119Z,14.20
2022-10-21T23:02:41.480Z,14.17
2022-10-21T23:05:45.369Z,14.24
2022-10-21T23:08:48.522Z,14.17
2022-10-21T23:11:51.734Z,13.89
2022-10-21T23:14:56.426Z,14.07
2022-10-21T23:17:59.631Z,13.98
2022-10-21T23:21:02.881Z,14.08
2022-10-21T23:24:07.218Z,13.98
2022-10-21T23:27:10.438Z,14.00
2022-10-21T23:30:15.292Z,14.04
2022-10-21T23:33:18.477Z,13.97
2022-10-21T23:36:21.616Z,13.97
2022-10-21T23:39:24.886Z,13.77
2022-10-21T23:42:28.147Z,13.91
2022-10-21T23:45:32.707Z,13.88
2022-10-21T23:48:35.934Z,13.76
2022-10-21T23:51:39.111Z,13.61
2022-10-21T23:54:42.417Z,13.05
2022-10-21T23:57:45.992Z,13.14
